createdAt,value
2017-08-16T00:01:04.197Z,1014.82
2017-08-16T00:02:14.573Z,1014.81
2017-08-16T00:03:24.812Z,1014.81
2017-08-16T00:04:35.057Z,1014.82
2017-08-16T00:05:44.693Z,1014.85
2017-08-16T00:06:54.936Z,1014.82
2017-08-16T00:08:05.571Z,1014.82
2017-08-16T00:09:15.186Z,1014.84
2017-08-16T00:10:25.128Z,1014.83
2017-08-16T00:11:35.047Z,1014.82
2017-08-16T00:12:45.281Z,1014.78
2017-08-16T00:13:55.289Z,1014.77
2017-08-16T00:15:05.522Z,1014.78
2017-08-16T00:16:15.437Z,1014.77
2017-08-16T00:17:25.045Z,1014.75
2017-08-16T00:18:35.301Z,1014.78
2017-08-16T00:19:45.376Z,1014.81
2017-08-16T00:20:55.002Z,1014.78
2017-08-16T00:22:05.230Z,1014.78
2017-08-16T00:23:15.471Z,1014.8
2017-08-16T00:24:25.405Z,1014.8
2017-08-16T00:25:35.355Z,1014.76
2017-08-16T00:26:45.291Z,1014.76
2017-08-16T00:27:55.211Z,1014.76
2017-08-16T00:29:05.447Z,1014.71
2017-08-16T00:30:15.378Z,1014.72
2017-08-16T00:31:25.140Z,1014.75
2017-08-16T00:32:35.063Z,1014.73
2017-08-16T00:33:45.291Z,1014.72
2017-08-16T00:34:55.532Z,1014.69
2017-08-16T00:36:05.777Z,1014.7
2017-08-16T00:37:15.392Z,1014.72
2017-08-16T00:38:25.615Z,1014.72
2017-08-16T00:39:35.850Z,1014.71
2017-08-16T00:40:46.087Z,1014.71
2017-08-16T00:41:56.305Z,1014.74
2017-08-16T00:43:06.223Z,1014.75
2017-08-16T00:44:16.166Z,1014.77
2017-08-16T00:45:26.111Z,1014.78
2017-08-16T00:46:36.061Z,1014.83
2017-08-16T00:47:45.687Z,1014.76
2017-08-16T00:48:55.684Z,1014.81
2017-08-16T00:50:05.610Z,1014.81
2017-08-16T00:51:15.532Z,1014.83
2017-08-16T00:52:25.144Z,1014.88
2017-08-16T00:53:34.770Z,1014.88
2017-08-16T00:54:44.382Z,1014.89
2017-08-16T00:55:54.640Z,1014.91
2017-08-16T00:57:04.282Z,1014.9
2017-08-16T00:58:13.883Z,1014.89
2017-08-16T00:59:24.101Z,1014.88
2017-08-16T01:00:34.491Z,1014.87
2017-08-16T01:01:44.732Z,1014.83
2017-08-16T01:02:54.655Z,1014.88
2017-08-16T01:04:04.285Z,1014.95
2017-08-16T01:05:14.521Z,1014.93
2017-08-16T01:06:24.296Z,1014.95
2017-08-16T01:07:34.215Z,1014.92
2017-08-16T01:08:44.152Z,1014.94
2017-08-16T01:09:54.072Z,1014.93
2017-08-16T01:11:04.295Z,1014.88
2017-08-16T01:12:14.511Z,1014.91
2017-08-16T01:13:24.740Z,1015
2017-08-16T01:14:34.663Z,1015.01
